Cimarron, Kansas
Current Conditions -  °F | °C
As of 8:52 PM on Saturday 20 Dec 2014 (Local Time) from KDDC Reporting Station
Haze Haze  
Wind Chill: 25°   Ceiling: Unl
Heat Index: 33°   Visibility: 5mi
Dew Point: 31°   Wind: 9mph
Humidity: 92%   Direction: 170°S
Pressure: 30.01"   Gusts: NA
Location:  37.81°N, 100.35°W
Report Text: KDDC 210252Z AUTO 17008KT 5SM BR CLR 01/M01 A3001 RMK AO2 SLP180 I1000 I3000 T00061006 58006
Loading
Personal Weather Stations






























Interactive Weather Map New forecast layout! Learn more

10-Day Weather Forecast

Advertisements
Track Severe Weather on mobile